Time;durP1;ratioP1;P1;durP2;ratioP2;P2;SDS_P1;SDS_P2;PMS_P1;PMS_P2;Temp;Humidity;BMP_temperature;BMP_pressure;BME280_temperature;BME280_humidity;BME280_pressure;Samples;Min_cycle;Max_cycle;Signal;HPM_P1;HPM_P2
2022/11/08 00:01:40;;;;;;;5.13;2.35;;;14.10;99.90;;;;;;5026634;28;20244;-67
2022/11/08 00:04:09;;;;;;;1.55;1.45;;;14.10;99.90;;;;;;5021776;28;20203;-67
2022/11/08 00:14:49;;;;;;;3.33;1.80;;;14.10;99.90;;;;;;5032710;28;20660;-67
2022/11/08 00:17:17;;;;;;;4.13;2.05;;;14.20;99.90;;;;;;5021977;28;20214;-67
2022/11/08 00:19:43;;;;;;;1.73;1.63;;;14.20;99.90;;;;;;5021499;28;20207;-67
2022/11/08 00:22:11;;;;;;;2.72;1.65;;;14.20;99.90;;;;;;5000668;28;20600;-67
2022/11/08 00:24:36;;;;;;;2.85;1.85;;;14.10;99.90;;;;;;5032089;28;20213;-67
2022/11/08 00:27:04;;;;;;;5.22;1.55;;;14.10;99.90;;;;;;5014571;28;20202;-67
2022/11/08 00:29:29;;;;;;;1.67;1.58;;;14.10;99.90;;;;;;5031313;28;20208;-67
2022/11/08 00:31:55;;;;;;;3.38;1.60;;;14.10;99.90;;;;;;5024724;28;20605;-67
2022/11/08 00:34:21;;;;;;;3.40;1.80;;;14.20;99.90;;;;;;5033034;28;20605;-67
2022/11/08 00:36:46;;;;;;;5.72;1.98;;;14.10;99.90;;;;;;5031591;28;20256;-67
2022/11/08 00:39:12;;;;;;;3.53;1.50;;;14.10;99.90;;;;;;5032610;28;20186;-67
2022/11/08 00:41:38;;;;;;;4.00;2.00;;;14.10;99.90;;;;;;5036264;28;20182;-67
2022/11/08 00:44:04;;;;;;;3.00;1.58;;;14.10;99.90;;;;;;5017060;28;20581;-67
2022/11/08 00:46:29;;;;;;;3.03;1.48;;;14.00;99.90;;;;;;5025679;28;20194;-67
2022/11/08 00:48:55;;;;;;;5.43;2.58;;;14.10;99.90;;;;;;5036456;28;20248;-67
2022/11/08 00:51:21;;;;;;;2.20;1.83;;;14.10;99.90;;;;;;5032632;28;20556;-67
2022/11/08 00:53:46;;;;;;;2.42;2.10;;;14.00;99.90;;;;;;5034915;28;20659;-67
2022/11/08 00:56:12;;;;;;;8.07;2.28;;;13.90;99.90;;;;;;5030654;28;20225;-66
2022/11/08 00:58:40;;;;;;;3.20;1.52;;;14.00;99.90;;;;;;5018414;28;20206;-67
2022/11/08 01:01:14;;;;;;;2.35;1.40;;;13.80;99.90;;;;;;5030559;28;20176;-67
2022/11/08 01:03:40;;;;;;;7.07;2.10;;;13.70;99.90;;;;;;5021451;28;20209;-66
2022/11/08 01:06:07;;;;;;;3.88;2.10;;;13.70;99.90;;;;;;5030958;28;20199;-67
2022/11/08 01:08:33;;;;;;;5.35;2.05;;;13.80;99.90;;;;;;5033665;28;20523;-66
2022/11/08 01:11:03;;;;;;;4.93;2.67;;;13.80;99.90;;;;;;5034164;28;20654;-66
2022/11/08 01:13:29;;;;;;;4.00;1.98;;;13.70;99.90;;;;;;5034232;28;20194;-66
2022/11/08 01:15:54;;;;;;;4.35;2.10;;;13.70;99.90;;;;;;5035763;28;20190;-67
2022/11/08 01:18:20;;;;;;;5.25;1.88;;;13.80;99.90;;;;;;5025917;28;20209;-66
2022/11/08 01:20:48;;;;;;;10.50;2.85;;;13.90;99.90;;;;;;5033482;28;20527;-67
2022/11/08 01:23:15;;;;;;;7.10;1.98;;;13.90;99.90;;;;;;5034305;28;20313;-67
2022/11/08 01:25:43;;;;;;;3.58;1.58;;;13.90;99.90;;;;;;5035354;28;20280;-66
2022/11/08 01:28:10;;;;;;;7.05;1.88;;;13.80;99.90;;;;;;5034151;28;20193;-67
2022/11/08 01:30:38;;;;;;;1.83;1.52;;;13.70;99.90;;;;;;5033298;28;20199;-66
2022/11/08 01:33:04;;;;;;;3.70;1.98;;;13.70;99.90;;;;;;5031434;28;20664;-67
2022/11/08 01:35:31;;;;;;;5.05;1.73;;;13.70;99.90;;;;;;5017947;28;20191;-67
2022/11/08 01:37:57;;;;;;;2.30;1.95;;;13.60;99.90;;;;;;5023707;28;20281;-67
2022/11/08 01:40:23;;;;;;;3.22;2.15;;;13.50;99.90;;;;;;5017587;28;20187;-67
2022/11/08 01:42:48;;;;;;;2.03;1.90;;;13.50;99.90;;;;;;5029941;28;20221;-67
2022/11/08 01:45:14;;;;;;;2.08;1.70;;;13.60;99.90;;;;;;5024635;28;20194;-67
2022/11/08 01:47:40;;;;;;;2.78;1.80;;;13.60;99.90;;;;;;5033830;28;20190;-67
2022/11/08 01:50:15;;;;;;;2.35;1.63;;;13.50;99.90;;;;;;5033691;28;20183;-67
2022/11/08 01:52:54;;;;;;;4.30;2.08;;;13.40;99.90;;;;;;5027926;28;20183;-67
2022/11/08 01:55:20;;;;;;;3.03;2.00;;;13.40;99.90;;;;;;5033002;28;20178;-67
2022/11/08 01:57:48;;;;;;;4.45;2.20;;;13.50;99.90;;;;;;5030586;28;20554;-66
2022/11/08 02:00:15;;;;;;;3.72;2.83;;;13.50;99.90;;;;;;5032777;28;20267;-67
2022/11/08 02:02:42;;;;;;;4.47;2.83;;;13.30;99.90;;;;;;5028355;28;20187;-67
2022/11/08 02:05:26;;;;;;;2.38;1.85;;;13.40;99.90;;;;;;5032825;28;20542;-66
2022/11/08 02:08:02;;;;;;;4.28;1.83;;;13.40;99.90;;;;;;5030798;28;20178;-67
2022/11/08 02:10:34;;;;;;;3.17;1.60;;;13.40;99.90;;;;;;5033821;28;20186;-67
2022/11/08 02:13:01;;;;;;;3.45;2.75;;;13.40;99.90;;;;;;5027110;28;20322;-67
2022/11/08 02:15:27;;;;;;;6.40;1.83;;;13.30;99.90;;;;;;5033488;28;20202;-67
2022/11/08 02:17:53;;;;;;;4.72;2.38;;;13.30;99.90;;;;;;5017002;28;20411;-67
2022/11/08 02:20:19;;;;;;;3.63;2.58;;;13.40;99.90;;;;;;5034256;28;20186;-67
2022/11/08 02:22:57;;;;;;;3.00;2.10;;;13.40;99.90;;;;;;5033969;28;20570;-67
2022/11/08 02:25:23;;;;;;;3.95;2.30;;;13.30;99.90;;;;;;5030802;28;20643;-66
2022/11/08 02:27:49;;;;;;;2.42;2.20;;;13.20;99.90;;;;;;5032722;28;20756;-66
2022/11/08 02:30:15;;;;;;;4.70;2.03;;;13.30;99.90;;;;;;5021358;28;20285;-66
2022/11/08 02:32:41;;;;;;;1.73;1.63;;;13.40;99.90;;;;;;5034841;28;20247;-66
2022/11/08 02:35:16;;;;;;;2.67;1.50;;;13.40;99.90;;;;;;5020443;28;20199;-67
2022/11/08 02:37:42;;;;;;;3.40;1.27;;;13.30;99.90;;;;;;5032087;28;20205;-66
2022/11/08 02:40:09;;;;;;;3.40;2.20;;;13.30;99.90;;;;;;5032033;28;20182;-67
2022/11/08 02:42:37;;;;;;;3.35;1.98;;;13.20;99.90;;;;;;5033968;28;20191;-66
2022/11/08 02:45:05;;;;;;;1.70;1.52;;;13.30;99.90;;;;;;5033607;28;20179;-66
2022/11/08 02:47:30;;;;;;;2.83;2.60;;;13.30;99.90;;;;;;5026512;28;20261;-66
2022/11/08 02:49:56;;;;;;;1.85;1.75;;;13.50;99.90;;;;;;5012800;28;20606;-66
2022/11/08 02:52:22;;;;;;;3.58;2.35;;;13.50;99.90;;;;;;5018658;28;20187;-67
2022/11/08 02:54:48;;;;;;;2.13;1.88;;;13.40;99.90;;;;;;5014627;28;20194;-66
2022/11/08 02:57:13;;;;;;;3.55;2.08;;;13.20;99.90;;;;;;5028753;28;20213;-66
2022/11/08 02:59:39;;;;;;;5.75;2.05;;;13.30;99.90;;;;;;5022037;28;20186;-66
2022/11/08 03:02:05;;;;;;;4.88;1.80;;;13.30;99.90;;;;;;5033056;28;20175;-66
2022/11/08 03:04:31;;;;;;;3.25;2.15;;;13.30;99.90;;;;;;5025000;28;20237;-66
2022/11/08 03:06:56;;;;;;;4.03;2.25;;;13.20;99.90;;;;;;5027576;28;20186;-66
2022/11/08 03:09:22;;;;;;;2.45;1.90;;;13.20;99.90;;;;;;5024174;28;20190;-66
2022/11/08 03:11:47;;;;;;;2.15;1.50;;;13.20;99.90;;;;;;5033752;28;20588;-66
2022/11/08 03:14:13;;;;;;;1.70;1.60;;;13.20;99.90;;;;;;5032751;28;20198;-68
2022/11/08 03:16:39;;;;;;;4.22;1.80;;;13.10;99.90;;;;;;5012561;28;20184;-66
2022/11/08 03:19:05;;;;;;;2.92;2.63;;;13.00;99.90;;;;;;5011510;28;20183;-65
2022/11/08 03:21:30;;;;;;;4.80;2.13;;;12.90;99.90;;;;;;5015499;28;20206;-66
2022/11/08 03:23:56;;;;;;;2.40;2.20;;;12.90;99.90;;;;;;5041414;28;20268;-67
2022/11/08 03:26:22;;;;;;;2.38;2.22;;;13.00;99.90;;;;;;5026949;28;20180;-67
2022/11/08 03:28:47;;;;;;;2.60;2.03;;;13.10;99.90;;;;;;5017496;28;20601;-66
2022/11/08 03:31:13;;;;;;;2.05;1.92;;;13.10;99.90;;;;;;5023390;28;20230;-66
2022/11/08 03:33:39;;;;;;;6.40;2.58;;;13.00;99.90;;;;;;5013890;28;20187;-66
2022/11/08 03:36:04;;;;;;;1.80;1.70;;;13.00;99.90;;;;;;5025795;28;20662;-67
2022/11/08 03:38:30;;;;;;;3.65;2.50;;;13.00;99.90;;;;;;5026631;28;20253;-67
2022/11/08 03:40:56;;;;;;;2.38;2.13;;;13.00;99.90;;;;;;5012555;28;20195;-66
2022/11/08 03:43:21;;;;;;;2.20;2.00;;;13.00;99.90;;;;;;5022444;28;20237;-67
2022/11/08 03:45:47;;;;;;;1.98;1.88;;;12.90;99.90;;;;;;5022586;28;20195;-67
2022/11/08 03:48:13;;;;;;;2.50;2.00;;;12.90;99.90;;;;;;5018329;28;20183;-66
2022/11/08 03:50:38;;;;;;;1.63;1.52;;;12.90;99.90;;;;;;5024241;28;20234;-67
2022/11/08 03:53:04;;;;;;;4.60;2.05;;;12.90;99.90;;;;;;5017843;28;20195;-67
2022/11/08 03:55:30;;;;;;;6.93;2.85;;;12.90;99.90;;;;;;5021081;28;20198;-67
2022/11/08 03:57:56;;;;;;;2.90;2.05;;;12.90;99.90;;;;;;5014426;28;20265;-66
2022/11/08 04:00:25;;;;;;;4.95;2.00;;;12.90;99.90;;;;;;5028003;28;20647;-67
2022/11/08 04:02:51;;;;;;;2.75;1.80;;;12.80;99.90;;;;;;5032646;28;20202;-67
2022/11/08 04:05:17;;;;;;;2.40;1.98;;;12.70;99.90;;;;;;5025958;28;20201;-66
2022/11/08 04:07:42;;;;;;;4.07;1.48;;;12.70;99.90;;;;;;5025496;28;20190;-67
2022/11/08 04:10:09;;;;;;;4.43;2.05;;;12.80;99.90;;;;;;5018304;28;20191;-66
2022/11/08 04:15:26;;;;;;;6.22;2.03;;;12.70;99.90;;;;;;5029946;28;20611;-67
2022/11/08 04:23:31;;;;;;;3.72;1.77;;;12.70;99.90;;;;;;5022556;28;20641;-67
2022/11/08 04:26:02;;;;;;;2.28;2.08;;;12.70;99.90;;;;;;5031565;28;20190;-67
2022/11/08 04:28:30;;;;;;;2.85;1.88;;;12.70;99.90;;;;;;5022045;28;20182;-66
2022/11/08 04:30:58;;;;;;;1.75;1.65;;;12.70;99.90;;;;;;5021877;28;20637;-66
2022/11/08 04:33:24;;;;;;;2.17;1.67;;;12.80;99.90;;;;;;5031818;28;20564;-67
2022/11/08 04:35:51;;;;;;;1.90;1.80;;;12.70;99.90;;;;;;5032721;28;20178;-67
2022/11/08 04:38:17;;;;;;;3.30;1.70;;;12.70;99.90;;;;;;5031578;28;20182;-66
2022/11/08 04:40:43;;;;;;;1.73;1.63;;;12.70;99.90;;;;;;5011221;28;20187;-67
2022/11/08 04:43:09;;;;;;;1.40;1.35;;;12.70;99.90;;;;;;5015241;28;20979;-67
2022/11/08 04:45:35;;;;;;;2.90;1.85;;;12.60;99.90;;;;;;5030973;28;20190;-66
2022/11/08 04:48:00;;;;;;;3.42;1.70;;;12.60;99.90;;;;;;5023517;28;20191;-66
2022/11/08 04:50:26;;;;;;;5.90;1.98;;;12.60;99.90;;;;;;5018137;28;20237;-66
2022/11/08 04:52:53;;;;;;;1.75;1.65;;;12.50;99.90;;;;;;5027890;28;20190;-69
2022/11/08 04:55:20;;;;;;;3.92;2.08;;;12.60;99.90;;;;;;5029160;28;20186;-66
2022/11/08 04:57:47;;;;;;;1.65;1.55;;;12.50;99.90;;;;;;5030052;28;20274;-66
2022/11/08 05:00:13;;;;;;;3.85;2.00;;;12.50;99.90;;;;;;5025709;28;20612;-65
2022/11/08 05:02:39;;;;;;;2.30;1.45;;;12.50;99.90;;;;;;5024293;28;20333;-65
2022/11/08 05:05:05;;;;;;;3.90;1.88;;;12.60;99.90;;;;;;5024241;28;20183;-70
2022/11/08 05:07:31;;;;;;;3.30;1.95;;;12.50;99.90;;;;;;5024573;28;20186;-66
2022/11/08 05:09:56;;;;;;;3.70;1.83;;;12.60;99.90;;;;;;5029076;28;20187;-69
2022/11/08 05:12:22;;;;;;;1.92;1.73;;;12.50;99.90;;;;;;5003321;28;20187;-67
2022/11/08 05:14:48;;;;;;;3.95;1.75;;;12.50;99.90;;;;;;5021046;28;20531;-67
2022/11/08 05:17:14;;;;;;;3.17;1.95;;;12.50;99.90;;;;;;5028491;28;20197;-66
2022/11/08 05:25:08;;;;;;;3.80;1.98;;;12.50;99.90;;;;;;5025080;28;20206;-67
2022/11/08 05:27:34;;;;;;;2.55;2.35;;;12.60;99.90;;;;;;5027697;28;20575;-68
2022/11/08 05:30:00;;;;;;;2.72;1.50;;;12.50;99.90;;;;;;5028101;28;20258;-67
2022/11/08 05:32:25;;;;;;;4.68;1.90;;;12.40;99.90;;;;;;5030071;28;20186;-67
2022/11/08 05:34:51;;;;;;;3.22;2.25;;;12.40;99.90;;;;;;5031340;28;20194;-66
2022/11/08 05:37:17;;;;;;;2.38;2.08;;;12.40;99.90;;;;;;5032989;28;20739;-67
2022/11/08 05:39:42;;;;;;;2.42;1.92;;;12.40;99.90;;;;;;5031713;28;20658;-69
2022/11/08 05:42:08;;;;;;;3.10;1.52;;;12.40;99.90;;;;;;5024074;28;20285;-66
2022/11/08 05:44:34;;;;;;;2.53;1.83;;;12.30;99.90;;;;;;5030978;28;20260;-67
2022/11/08 05:46:59;;;;;;;3.72;2.28;;;12.40;99.90;;;;;;5031643;28;20600;-65
2022/11/08 05:49:25;;;;;;;5.32;1.92;;;12.50;99.90;;;;;;5033996;28;20189;-66
2022/11/08 05:51:51;;;;;;;3.78;1.85;;;12.60;99.90;;;;;;5023309;28;20192;-66
2022/11/08 05:54:16;;;;;;;3.25;1.83;;;12.60;99.90;;;;;;5023837;28;20183;-66
2022/11/08 05:56:42;;;;;;;1.85;1.73;;;12.60;99.90;;;;;;5021214;28;20191;-66
2022/11/08 05:59:08;;;;;;;4.13;1.65;;;12.70;99.90;;;;;;5025343;28;20190;-66
2022/11/08 06:01:34;;;;;;;2.83;1.88;;;12.70;99.90;;;;;;5014348;28;20187;-67
2022/11/08 06:03:59;;;;;;;1.95;1.75;;;12.80;99.90;;;;;;5032627;28;20203;-66
2022/11/08 06:06:25;;;;;;;1.63;1.45;;;12.80;99.90;;;;;;5028902;28;20606;-66
2022/11/08 06:08:51;;;;;;;5.00;1.60;;;12.80;99.90;;;;;;5031884;28;20179;-65
2022/11/08 06:11:20;;;;;;;1.63;1.52;;;12.90;99.90;;;;;;5027729;28;20292;-67
2022/11/08 06:13:46;;;;;;;2.30;1.83;;;12.90;99.90;;;;;;4673881;28;10000427;-65
2022/11/08 06:16:13;;;;;;;4.00;1.65;;;12.90;99.90;;;;;;5012893;28;20189;-66
2022/11/08 06:18:40;;;;;;;2.63;1.80;;;12.90;99.90;;;;;;5029129;28;20187;-66
2022/11/08 06:21:09;;;;;;;1.45;1.35;;;12.90;99.90;;;;;;5019563;28;20187;-66
2022/11/08 06:23:35;;;;;;;2.17;1.60;;;12.90;99.90;;;;;;5029157;28;20211;-66
2022/11/08 06:26:01;;;;;;;2.28;1.35;;;12.90;99.90;;;;;;5027549;28;20191;-66
2022/11/08 06:28:26;;;;;;;2.38;1.75;;;12.80;99.90;;;;;;5011249;28;20198;-67
2022/11/08 06:30:53;;;;;;;1.90;1.60;;;12.80;99.90;;;;;;5029933;28;20197;-67
2022/11/08 06:33:19;;;;;;;4.72;1.60;;;12.90;99.90;;;;;;5028537;28;20198;-68
2022/11/08 06:35:45;;;;;;;2.20;1.80;;;12.90;99.90;;;;;;5020937;28;20212;-66
2022/11/08 06:38:11;;;;;;;2.75;1.85;;;12.90;99.90;;;;;;5014838;28;20192;-65
2022/11/08 06:40:37;;;;;;;2.13;1.88;;;12.90;99.90;;;;;;5029477;28;20643;-65
2022/11/08 06:43:03;;;;;;;1.80;1.70;;;12.90;99.90;;;;;;5025644;28;20293;-65
2022/11/08 06:45:29;;;;;;;3.10;1.65;;;13.00;99.90;;;;;;5015264;28;20279;-66
2022/11/08 06:47:59;;;;;;;2.63;2.03;;;13.00;99.90;;;;;;5034399;28;20554;-66
2022/11/08 06:50:25;;;;;;;1.88;1.67;;;13.00;99.90;;;;;;5025275;28;20198;-65
2022/11/08 06:53:20;;;;;;;4.70;2.55;;;13.10;99.90;;;;;;5021980;28;20190;-65
2022/11/08 06:55:46;;;;;;;4.25;1.88;;;13.10;99.90;;;;;;5005208;28;20218;-65
2022/11/08 06:58:12;;;;;;;2.00;1.80;;;13.10;99.90;;;;;;5023748;28;20187;-65
2022/11/08 07:00:38;;;;;;;2.25;1.98;;;13.10;99.90;;;;;;5029257;28;20288;-65
2022/11/08 07:03:03;;;;;;;1.85;1.70;;;13.10;99.90;;;;;;5028633;28;20222;-66
2022/11/08 07:05:31;;;;;;;5.88;1.92;;;13.10;99.90;;;;;;5029297;28;20193;-66
2022/11/08 07:07:57;;;;;;;1.75;1.65;;;13.10;99.90;;;;;;5029784;28;20269;-65
2022/11/08 07:10:26;;;;;;;1.42;1.33;;;13.10;99.90;;;;;;5017002;28;20275;-65
2022/11/08 07:12:57;;;;;;;4.05;1.70;;;13.10;99.90;;;;;;5025529;28;20197;-65
2022/11/08 07:15:23;;;;;;;2.15;1.92;;;13.10;99.90;;;;;;5028940;28;20186;-64
2022/11/08 07:17:49;;;;;;;5.85;1.80;;;13.10;99.90;;;;;;5029038;28;20269;-64
2022/11/08 07:20:14;;;;;;;3.40;1.80;;;13.20;99.90;;;;;;5028337;28;20648;-65
2022/11/08 07:22:40;;;;;;;2.25;1.95;;;13.20;99.90;;;;;;5000676;28;20191;-65
2022/11/08 07:25:06;;;;;;;7.10;1.80;;;13.20;99.90;;;;;;5027783;28;20190;-65
2022/11/08 07:27:32;;;;;;;2.45;2.00;;;13.20;99.90;;;;;;5009182;28;20188;-65
2022/11/08 07:29:59;;;;;;;2.80;1.52;;;13.20;99.90;;;;;;5023189;28;20199;-63
2022/11/08 07:32:25;;;;;;;1.42;1.33;;;13.30;99.90;;;;;;5027658;28;20183;-65
2022/11/08 07:34:51;;;;;;;2.85;1.70;;;13.20;99.90;;;;;;5023431;28;20194;-65
2022/11/08 07:37:16;;;;;;;2.67;2.10;;;13.30;99.90;;;;;;5025829;28;20195;-65
2022/11/08 07:39:42;;;;;;;5.28;2.55;;;13.30;99.90;;;;;;5017809;28;20183;-65
2022/11/08 07:42:08;;;;;;;4.47;2.97;;;13.30;99.90;;;;;;5027974;28;20190;-66
2022/11/08 07:44:33;;;;;;;5.88;3.28;;;13.30;99.90;;;;;;5028919;28;20222;-66
2022/11/08 07:46:59;;;;;;;9.23;3.78;;;13.40;99.90;;;;;;5028291;28;20226;-66
2022/11/08 07:49:25;;;;;;;8.25;3.40;;;13.40;99.90;;;;;;5020623;28;20237;-65
2022/11/08 07:51:50;;;;;;;5.75;3.38;;;13.50;99.90;;;;;;5025991;28;20191;-66
2022/11/08 07:54:16;;;;;;;5.43;3.13;;;13.50;99.90;;;;;;5028659;28;20197;-66
2022/11/08 07:56:42;;;;;;;7.18;3.20;;;13.50;99.90;;;;;;5011354;28;20224;-66
2022/11/08 07:59:07;;;;;;;4.75;3.20;;;13.50;99.90;;;;;;5025970;28;20722;-65
2022/11/08 08:01:33;;;;;;;5.90;3.47;;;13.60;99.90;;;;;;5011410;28;20190;-66
2022/11/08 08:03:59;;;;;;;3.22;2.47;;;13.70;99.90;;;;;;5027541;28;20298;-65
2022/11/08 08:06:25;;;;;;;4.22;2.60;;;13.80;99.90;;;;;;5011495;28;20221;-65
2022/11/08 08:08:50;;;;;;;4.85;3.22;;;13.90;99.90;;;;;;5017726;28;20277;-68
2022/11/08 08:11:16;;;;;;;4.90;2.85;;;13.90;99.90;;;;;;5028140;28;20281;-65
2022/11/08 08:13:42;;;;;;;4.40;2.83;;;13.80;99.90;;;;;;5029006;28;20198;-66
2022/11/08 08:16:08;;;;;;;5.65;3.10;;;13.80;99.90;;;;;;5028366;28;20248;-65
2022/11/08 08:18:34;;;;;;;3.08;2.50;;;14.00;99.90;;;;;;5025317;28;20222;-66
2022/11/08 08:20:59;;;;;;;3.17;2.40;;;14.00;99.90;;;;;;5040547;28;20237;-66
2022/11/08 08:23:25;;;;;;;2.50;2.08;;;14.00;99.90;;;;;;5025839;28;20219;-67
2022/11/08 08:25:51;;;;;;;5.07;2.70;;;14.00;99.90;;;;;;5026375;28;20222;-66
2022/11/08 08:28:17;;;;;;;1.83;1.70;;;14.00;99.90;;;;;;5026223;28;20287;-65
2022/11/08 08:30:43;;;;;;;7.82;2.17;;;14.10;99.90;;;;;;5036877;28;20297;-65
2022/11/08 08:33:14;;;;;;;2.47;1.70;;;14.10;99.90;;;;;;5026031;28;20261;-65
2022/11/08 08:35:42;;;;;;;3.28;2.22;;;14.10;99.90;;;;;;5019656;28;20266;-66
2022/11/08 08:38:09;;;;;;;2.13;2.03;;;14.20;99.90;;;;;;5019336;28;20212;-67
2022/11/08 08:40:35;;;;;;;1.83;1.73;;;14.20;99.90;;;;;;5027194;28;20273;-65
2022/11/08 08:43:03;;;;;;;2.45;1.98;;;14.20;99.90;;;;;;5014823;28;20314;-66
2022/11/08 08:45:30;;;;;;;4.63;2.10;;;14.20;99.90;;;;;;5028506;28;20194;-65
2022/11/08 08:47:56;;;;;;;3.42;1.75;;;14.30;99.90;;;;;;5028171;28;20244;-66
2022/11/08 08:50:23;;;;;;;4.50;2.35;;;14.30;99.90;;;;;;5011121;28;20187;-65
2022/11/08 08:52:49;;;;;;;1.73;1.63;;;14.40;99.90;;;;;;5032817;28;20186;-66
2022/11/08 08:55:16;;;;;;;2.78;2.35;;;14.30;99.90;;;;;;5028439;28;20193;-66
2022/11/08 08:57:46;;;;;;;2.30;2.10;;;14.40;99.90;;;;;;5022248;28;20558;-66
2022/11/08 09:00:13;;;;;;;3.90;2.15;;;14.60;99.90;;;;;;5028222;28;20186;-66
2022/11/08 09:02:38;;;;;;;3.13;2.03;;;14.70;99.90;;;;;;5031193;28;20245;-65
2022/11/08 09:05:04;;;;;;;6.65;2.45;;;14.70;99.90;;;;;;5024670;28;20227;-66
2022/11/08 09:07:30;;;;;;;3.42;2.15;;;14.90;99.90;;;;;;5014536;28;20190;-66
2022/11/08 09:09:55;;;;;;;1.95;1.75;;;15.10;99.90;;;;;;5024554;28;20187;-66
2022/11/08 09:12:22;;;;;;;2.03;1.50;;;15.20;99.90;;;;;;5032435;28;20197;-66
2022/11/08 09:14:47;;;;;;;2.58;1.80;;;15.20;99.90;;;;;;5022649;28;20290;-66
2022/11/08 09:17:13;;;;;;;2.08;1.85;;;15.20;99.90;;;;;;5025654;28;20432;-66
2022/11/08 09:19:39;;;;;;;3.30;2.03;;;15.30;99.90;;;;;;5024206;28;20191;-65
2022/11/08 09:22:04;;;;;;;3.65;2.00;;;15.40;99.90;;;;;;5027889;28;20194;-67
2022/11/08 09:24:32;;;;;;;2.53;1.77;;;15.50;99.90;;;;;;5030763;28;20210;-66
2022/11/08 09:27:02;;;;;;;7.43;1.85;;;15.50;99.90;;;;;;5021401;28;20293;-66
2022/11/08 09:29:32;;;;;;;4.47;1.90;;;15.40;99.90;;;;;;5043907;28;20211;-66
2022/11/08 09:31:58;;;;;;;3.60;1.90;;;15.40;99.90;;;;;;5027183;28;20186;-66
2022/11/08 09:34:24;;;;;;;2.35;1.42;;;15.30;99.90;;;;;;5026340;28;20674;-66
2022/11/08 09:36:50;;;;;;;1.90;1.73;;;15.40;99.90;;;;;;5030263;28;20182;-66
2022/11/08 09:39:16;;;;;;;1.92;1.63;;;15.40;99.90;;;;;;5031981;28;20666;-66
2022/11/08 09:41:54;;;;;;;1.95;1.85;;;15.40;99.90;;;;;;5011731;28;20209;-66
2022/11/08 09:44:45;;;;;;;1.90;1.80;;;15.50;99.90;;;;;;5023243;28;20242;-67
2022/11/08 09:47:41;;;;;;;2.30;1.63;;;15.60;99.90;;;;;;5011501;28;20199;-66
2022/11/08 09:50:21;;;;;;;3.95;1.80;;;15.50;99.90;;;;;;5028830;28;20353;-66
2022/11/08 09:53:25;;;;;;;2.30;2.10;;;15.50;99.90;;;;;;5016670;28;20210;-65
2022/11/08 09:55:58;;;;;;;2.63;1.58;;;15.70;99.90;;;;;;4995008;28;20223;-66
2022/11/08 09:58:47;;;;;;;2.00;1.45;;;15.70;99.90;;;;;;5026287;28;20249;-67
2022/11/08 10:01:13;;;;;;;2.25;2.15;;;15.80;99.90;;;;;;5029784;28;20576;-65
2022/11/08 10:03:43;;;;;;;4.57;3.55;;;15.70;99.90;;;;;;5027330;28;20207;-66
2022/11/08 10:06:24;;;;;;;1.80;1.70;;;15.60;99.90;;;;;;5030410;28;20175;-65
2022/11/08 10:09:17;;;;;;;3.70;2.17;;;15.70;99.90;;;;;;5031043;28;20182;-65
2022/11/08 10:12:01;;;;;;;3.75;2.20;;;15.80;99.90;;;;;;5026272;28;20218;-65
2022/11/08 10:14:56;;;;;;;3.10;1.98;;;16.00;99.90;;;;;;5024517;28;20217;-65
2022/11/08 10:17:45;;;;;;;5.03;1.50;;;16.00;99.90;;;;;;5019427;28;20191;-65
2022/11/08 10:20:37;;;;;;;1.58;1.48;;;16.00;99.90;;;;;;5034119;28;20584;-64
2022/11/08 10:23:20;;;;;;;3.00;2.05;;;16.00;99.90;;;;;;5027616;28;20225;-64
2022/11/08 10:25:59;;;;;;;3.40;1.70;;;16.20;99.90;;;;;;5024905;28;20184;-65
2022/11/08 10:28:35;;;;;;;2.97;1.63;;;16.30;99.90;;;;;;5020973;28;20192;-64
2022/11/08 10:31:02;;;;;;;1.90;1.58;;;16.30;99.90;;;;;;5032992;28;20182;-64
2022/11/08 10:33:36;;;;;;;3.35;1.83;;;16.30;99.90;;;;;;5024621;28;20559;-65
2022/11/08 10:36:13;;;;;;;2.13;2.03;;;16.30;99.90;;;;;;5015490;28;20644;-65
2022/11/08 10:38:44;;;;;;;3.63;1.70;;;16.30;99.90;;;;;;5032716;28;20196;-65
2022/11/08 10:41:20;;;;;;;2.45;1.95;;;16.30;99.90;;;;;;5031264;28;20589;-65
2022/11/08 10:44:05;;;;;;;5.15;2.30;;;16.30;99.90;;;;;;5033869;28;20682;-64
2022/11/08 10:46:47;;;;;;;3.20;2.17;;;16.40;99.90;;;;;;5031199;28;20186;-64
2022/11/08 10:49:24;;;;;;;3.03;2.47;;;16.30;99.90;;;;;;5032360;28;20626;-65
2022/11/08 10:51:55;;;;;;;5.03;2.15;;;16.40;99.90;;;;;;5031796;28;20182;-66
2022/11/08 10:54:57;;;;;;;4.63;1.92;;;16.40;99.90;;;;;;5030238;28;20644;-65
2022/11/08 10:57:37;;;;;;;2.65;2.30;;;16.50;99.90;;;;;;4943564;28;20228;-66
2022/11/08 11:00:21;;;;;;;2.88;1.98;;;16.50;99.90;;;;;;5011504;28;20211;-66
2022/11/08 11:03:05;;;;;;;3.22;2.33;;;16.50;99.90;;;;;;5014812;28;20214;-65
2022/11/08 11:05:42;;;;;;;2.10;2.00;;;16.50;99.90;;;;;;5032869;28;20178;-65
2022/11/08 11:08:08;;;;;;;2.10;1.85;;;16.60;99.90;;;;;;5030644;28;20235;-66
2022/11/08 11:10:44;;;;;;;3.75;1.95;;;16.60;99.90;;;;;;5024824;28;20213;-65
2022/11/08 11:13:28;;;;;;;2.75;1.75;;;16.60;99.90;;;;;;5031652;28;20662;-65
2022/11/08 11:15:57;;;;;;;4.22;1.67;;;16.70;99.90;;;;;;5018926;28;20175;-66
2022/11/08 11:18:37;;;;;;;4.25;2.15;;;16.80;99.90;;;;;;5041080;28;20187;-66
2022/11/08 11:21:10;;;;;;;3.80;1.50;;;16.80;99.90;;;;;;5032350;28;20190;-65
2022/11/08 11:23:41;;;;;;;2.10;1.75;;;16.90;99.90;;;;;;5023463;28;20608;-65
2022/11/08 11:26:15;;;;;;;1.90;1.65;;;16.90;99.90;;;;;;5032508;28;20194;-65
2022/11/08 11:29:03;;;;;;;3.20;2.03;;;17.00;99.90;;;;;;5027839;28;20257;-65
2022/11/08 11:31:31;;;;;;;7.38;2.90;;;17.00;99.90;;;;;;5028175;28;20267;-65
2022/11/08 11:33:57;;;;;;;2.65;1.88;;;17.10;99.90;;;;;;5032278;28;20198;-65
2022/11/08 11:36:28;;;;;;;5.45;2.40;;;17.00;99.90;;;;;;5014162;28;20190;-66
2022/11/08 11:39:05;;;;;;;2.95;2.15;;;17.00;99.90;;;;;;5030108;28;20187;-65
2022/11/08 11:42:09;;;;;;;2.33;2.13;;;17.00;99.90;;;;;;5031490;28;20638;-65
2022/11/08 11:45:02;;;;;;;2.13;2.00;;;17.00;99.90;;;;;;5023930;28;20213;-65
2022/11/08 11:47:32;;;;;;;1.92;1.80;;;17.00;99.90;;;;;;5023146;28;20210;-65
2022/11/08 11:50:20;;;;;;;2.17;2.00;;;17.10;99.90;;;;;;5029661;28;20546;-65
2022/11/08 11:52:46;;;;;;;2.60;1.83;;;17.10;99.90;;;;;;5028080;28;20647;-64
2022/11/08 11:55:16;;;;;;;3.75;1.90;;;17.10;99.90;;;;;;5018119;28;20191;-64
2022/11/08 11:57:51;;;;;;;2.20;1.30;;;16.90;99.90;;;;;;5031614;28;20218;-64
2022/11/08 12:00:17;;;;;;;2.70;2.00;;;17.00;99.90;;;;;;5025252;28;20190;-65
2022/11/08 12:02:52;;;;;;;5.00;2.20;;;17.20;99.90;;;;;;5027711;28;20213;-64
2022/11/08 12:05:27;;;;;;;3.45;2.00;;;17.30;99.90;;;;;;5012797;28;20643;-66
2022/11/08 12:08:27;;;;;;;2.67;1.73;;;17.20;99.90;;;;;;5023053;28;20269;-65
2022/11/08 12:11:04;;;;;;;2.65;1.77;;;17.20;99.90;;;;;;5031857;28;20197;-65
2022/11/08 12:13:35;;;;;;;2.65;1.85;;;17.20;99.90;;;;;;5032952;28;20273;-65
2022/11/08 12:16:20;;;;;;;3.42;1.70;;;17.10;99.90;;;;;;5031211;28;20697;-64
2022/11/08 12:19:18;;;;;;;1.70;1.50;;;17.10;99.90;;;;;;5013159;28;20207;-65
2022/11/08 12:22:17;;;;;;;6.18;2.10;;;17.00;99.90;;;;;;5021902;28;20182;-65
2022/11/08 12:24:51;;;;;;;6.53;2.03;;;17.00;99.90;;;;;;5015532;28;20206;-65
2022/11/08 12:27:28;;;;;;;8.85;2.00;;;17.00;99.90;;;;;;5040254;28;20224;-64
2022/11/08 12:29:56;;;;;;;4.25;2.08;;;17.20;99.90;;;;;;5032209;28;20201;-64
2022/11/08 12:32:44;;;;;;;2.83;1.50;;;17.10;99.90;;;;;;5021227;28;20644;-65
2022/11/08 12:35:28;;;;;;;1.52;1.30;;;17.00;99.90;;;;;;5020851;28;20185;-65
2022/11/08 12:38:04;;;;;;;1.70;1.50;;;17.20;99.90;;;;;;5031518;28;20263;-65
2022/11/08 12:40:43;;;;;;;8.10;2.50;;;17.20;99.90;;;;;;5032299;28;20178;-65
2022/11/08 12:43:23;;;;;;;3.63;2.17;;;17.20;99.90;;;;;;5031208;28;20719;-66
2022/11/08 12:45:59;;;;;;;2.42;2.00;;;17.40;99.90;;;;;;5027884;28;20191;-65
2022/11/08 12:48:47;;;;;;;1.65;1.50;;;17.40;99.90;;;;;;5020705;28;20654;-65
2022/11/08 12:51:13;;;;;;;2.33;1.70;;;17.30;99.90;;;;;;5024436;28;20183;-65
2022/11/08 12:53:55;;;;;;;1.85;1.55;;;17.30;99.90;;;;;;5021194;28;20194;-65
2022/11/08 12:56:35;;;;;;;1.60;1.50;;;17.10;99.90;;;;;;5013428;28;20244;-65
2022/11/08 12:59:02;;;;;;;1.90;1.63;;;17.00;99.90;;;;;;5017325;28;20183;-66
2022/11/08 13:01:29;;;;;;;2.58;1.73;;;17.10;99.90;;;;;;5023838;28;20178;-66
2022/11/08 13:04:18;;;;;;;3.22;1.95;;;17.20;99.90;;;;;;5028799;28;20214;-65
2022/11/08 13:07:10;;;;;;;6.45;1.63;;;17.30;99.90;;;;;;5027373;28;20226;-65
2022/11/08 13:09:39;;;;;;;5.65;1.60;;;17.40;99.90;;;;;;5032410;28;20233;-65
2022/11/08 13:12:47;;;;;;;3.50;2.53;;;17.50;99.90;;;;;;5043140;28;20179;-66
2022/11/08 13:15:25;;;;;;;4.50;1.88;;;17.50;99.90;;;;;;5003020;28;20685;-65
2022/11/08 13:18:21;;;;;;;2.70;1.83;;;17.30;99.90;;;;;;5016308;28;20211;-66
2022/11/08 13:20:48;;;;;;;3.05;2.17;;;17.10;99.90;;;;;;5018551;28;20624;-66
2022/11/08 13:23:29;;;;;;;4.60;2.88;;;17.30;99.90;;;;;;5030550;28;20206;-65